Time;durP1;ratioP1;P1;durP2;ratioP2;P2;SDS_P1;SDS_P2;PMS_P1;PMS_P2;Temp;Humidity;BMP_temperature;BMP_pressure;BME280_temperature;BME280_humidity;BME280_pressure;Samples;Min_cycle;Max_cycle;Signal;HPM_P1;HPM_P2
2023/03/30 00:00:54;;;;;;;5.87;4.63;;;5.50;91.70;;;;;;5091391;28;20167;-77
2023/03/30 00:03:21;;;;;;;5.50;4.93;;;5.40;91.60;;;;;;5091748;28;20740;-78
2023/03/30 00:05:50;;;;;;;8.10;5.03;;;5.50;91.70;;;;;;5091945;28;20265;-78
2023/03/30 00:08:17;;;;;;;5.13;4.40;;;5.40;91.70;;;;;;5091428;28;20206;-77
2023/03/30 00:10:46;;;;;;;4.93;4.43;;;5.50;91.80;;;;;;5091884;28;20177;-76
2023/03/30 00:13:12;;;;;;;4.60;4.20;;;5.60;91.80;;;;;;5091563;28;20167;-79
2023/03/30 00:15:38;;;;;;;5.17;4.67;;;5.70;91.70;;;;;;5091739;28;20169;-77
2023/03/30 00:18:04;;;;;;;4.13;3.73;;;5.80;91.70;;;;;;5091354;28;20170;-77
2023/03/30 00:20:32;;;;;;;6.10;4.80;;;5.90;91.60;;;;;;5095538;28;20595;-77
2023/03/30 00:22:58;;;;;;;7.20;4.47;;;5.90;91.70;;;;;;5095867;28;20638;-78
2023/03/30 00:25:24;;;;;;;4.93;4.00;;;6.00;91.60;;;;;;5095712;28;20174;-78
2023/03/30 00:27:50;;;;;;;5.33;4.10;;;6.00;91.60;;;;;;5077657;28;20229;-79
2023/03/30 00:30:17;;;;;;;5.77;4.77;;;5.90;91.80;;;;;;5095786;28;20224;-76
2023/03/30 00:32:44;;;;;;;5.40;4.47;;;5.90;91.80;;;;;;5095723;28;20187;-77
2023/03/30 00:35:11;;;;;;;4.40;4.00;;;5.90;91.90;;;;;;5095164;28;20201;-76
2023/03/30 00:37:37;;;;;;;4.83;4.10;;;6.00;91.90;;;;;;5095629;28;20262;-77
2023/03/30 00:40:06;;;;;;;4.47;3.80;;;6.00;92.20;;;;;;5095796;28;20735;-76
2023/03/30 00:42:36;;;;;;;5.67;4.00;;;6.10;92.00;;;;;;5095755;28;20217;-77
2023/03/30 00:45:20;;;;;;;4.43;4.00;;;6.10;91.90;;;;;;5095344;28;20281;-78
2023/03/30 00:48:07;;;;;;;3.90;3.60;;;6.20;92.20;;;;;;5094995;28;20221;-76
2023/03/30 00:50:53;;;;;;;5.33;4.03;;;6.20;92.30;;;;;;5095420;28;20183;-78
2023/03/30 00:53:37;;;;;;;4.23;3.87;;;6.30;91.90;;;;;;5095179;28;20164;-78
2023/03/30 00:56:06;;;;;;;6.43;4.50;;;6.30;91.90;;;;;;5095131;28;20192;-76
2023/03/30 00:58:34;;;;;;;4.30;3.90;;;6.30;92.00;;;;;;5094711;28;20591;-78
2023/03/30 01:01:03;;;;;;;4.53;4.13;;;6.40;92.10;;;;;;5094823;28;20193;-79
2023/03/30 01:03:45;;;;;;;4.23;3.83;;;6.30;92.20;;;;;;5094967;28;20245;-77
2023/03/30 01:06:13;;;;;;;4.03;3.17;;;6.30;92.00;;;;;;5095061;28;20157;-78
2023/03/30 01:08:41;;;;;;;3.80;3.50;;;6.30;91.60;;;;;;5094413;28;20207;-77
2023/03/30 01:11:07;;;;;;;3.50;3.20;;;6.30;91.60;;;;;;5094633;28;20172;-78
2023/03/30 01:13:43;;;;;;;3.77;3.47;;;6.30;91.60;;;;;;5094518;28;20173;-76
2023/03/30 01:16:20;;;;;;;3.77;3.33;;;6.30;91.50;;;;;;5094678;28;20167;-77
2023/03/30 01:19:00;;;;;;;3.67;3.33;;;6.20;91.60;;;;;;5094226;28;20163;-78
2023/03/30 01:21:41;;;;;;;2.93;2.73;;;6.20;91.70;;;;;;5094252;28;20256;-77
2023/03/30 01:24:52;;;;;;;6.07;3.60;;;6.30;91.70;;;;;;5094349;28;20592;-76
2023/03/30 01:27:48;;;;;;;3.80;3.50;;;6.20;91.70;;;;;;5011754;28;20262;-76
2023/03/30 01:31:07;;;;;;;3.60;3.30;;;6.20;91.80;;;;;;5011652;28;20177;-78
2023/03/30 01:34:06;;;;;;;3.20;2.90;;;6.10;92.00;;;;;;4992173;28;20185;-77
2023/03/30 01:37:09;;;;;;;3.70;3.40;;;6.20;91.90;;;;;;5011882;28;20175;-76
2023/03/30 01:40:26;;;;;;;3.67;3.37;;;6.20;92.50;;;;;;5011234;28;20190;-79
2023/03/30 01:43:15;;;;;;;3.43;3.13;;;6.20;93.10;;;;;;5011326;28;20297;-76
2023/03/30 01:45:43;;;;;;;3.47;3.00;;;6.20;93.00;;;;;;5014656;28;20242;-76
2023/03/30 01:48:12;;;;;;;3.57;3.10;;;6.30;93.30;;;;;;5031073;28;20182;-76
2023/03/30 01:50:52;;;;;;;2.90;2.70;;;6.40;93.00;;;;;;5031008;28;20661;-76
2023/03/30 01:53:40;;;;;;;2.97;2.77;;;6.40;92.90;;;;;;5031156;28;20163;-77
2023/03/30 01:56:32;;;;;;;5.63;3.63;;;6.40;93.50;;;;;;5031435;28;20174;-77
2023/03/30 01:59:08;;;;;;;5.27;3.40;;;6.40;93.50;;;;;;5106729;28;20179;-77
2023/03/30 02:01:36;;;;;;;3.70;3.40;;;6.40;92.90;;;;;;5113652;28;20588;-77
2023/03/30 02:04:05;;;;;;;4.00;3.70;;;6.40;93.10;;;;;;5114678;28;20199;-79
2023/03/30 02:06:55;;;;;;;5.10;3.47;;;6.40;93.60;;;;;;5114849;28;20175;-76
2023/03/30 02:09:23;;;;;;;3.97;3.67;;;6.40;94.00;;;;;;5113859;28;20206;-77
2023/03/30 02:11:52;;;;;;;5.30;4.10;;;6.40;94.30;;;;;;5112995;28;20188;-77
2023/03/30 02:14:21;;;;;;;7.90;4.87;;;6.40;94.30;;;;;;5112167;28;20578;-76
2023/03/30 02:16:49;;;;;;;4.23;3.90;;;6.50;94.20;;;;;;5113955;28;20191;-79
2023/03/30 02:19:15;;;;;;;6.47;4.93;;;6.50;93.90;;;;;;5114336;28;20265;-77
2023/03/30 02:21:43;;;;;;;6.93;6.23;;;6.40;94.40;;;;;;5113259;28;20662;-77
2023/03/30 02:24:17;;;;;;;9.03;6.27;;;6.50;94.80;;;;;;5114066;28;20242;-79
2023/03/30 02:26:50;;;;;;;9.53;6.70;;;6.50;94.90;;;;;;5113937;28;20161;-77
2023/03/30 02:29:17;;;;;;;10.63;6.90;;;6.50;95.00;;;;;;5113728;28;20187;-77
2023/03/30 02:31:45;;;;;;;10.80;6.17;;;6.40;95.50;;;;;;5114099;28;20188;-77
2023/03/30 02:34:27;;;;;;;9.47;6.60;;;6.40;95.70;;;;;;5113688;28;20176;-77
2023/03/30 02:37:24;;;;;;;10.17;7.43;;;6.40;95.40;;;;;;5113511;28;20157;-76
2023/03/30 02:40:12;;;;;;;7.97;6.50;;;6.40;95.60;;;;;;5114048;28;20250;-76
2023/03/30 02:42:58;;;;;;;8.77;6.43;;;6.30;96.00;;;;;;5113974;28;20191;-78
2023/03/30 02:45:30;;;;;;;8.53;6.80;;;6.30;96.20;;;;;;5114064;28;20159;-77
2023/03/30 02:48:11;;;;;;;8.13;5.83;;;6.30;96.10;;;;;;5094446;28;20176;-76
2023/03/30 02:50:41;;;;;;;9.40;6.27;;;6.40;96.00;;;;;;5093699;28;20168;-76
2023/03/30 02:53:37;;;;;;;6.63;5.13;;;6.40;95.90;;;;;;5093975;28;20217;-77
2023/03/30 02:56:14;;;;;;;6.17;5.27;;;6.40;96.00;;;;;;5093765;28;20169;-78
2023/03/30 02:58:50;;;;;;;9.27;5.90;;;6.30;96.10;;;;;;5075200;28;20541;-76
2023/03/30 03:01:38;;;;;;;7.27;5.80;;;6.40;96.40;;;;;;5093384;28;20645;-78
2023/03/30 03:04:06;;;;;;;8.77;6.10;;;6.40;96.50;;;;;;5093544;28;20300;-75
2023/03/30 03:06:32;;;;;;;9.83;6.13;;;6.40;96.60;;;;;;5092882;28;20187;-76
2023/03/30 03:08:58;;;;;;;12.37;6.40;;;6.50;96.30;;;;;;5092892;28;20184;-76
2023/03/30 03:11:24;;;;;;;9.03;7.13;;;6.50;96.30;;;;;;5092528;28;20174;-77
2023/03/30 03:13:51;;;;;;;8.03;6.60;;;6.40;96.40;;;;;;5092468;28;20565;-77
2023/03/30 03:16:17;;;;;;;10.97;6.67;;;6.40;96.30;;;;;;5092594;28;20228;-78
2023/03/30 03:18:43;;;;;;;7.73;6.30;;;6.40;96.10;;;;;;5092226;28;20205;-77
2023/03/30 03:21:10;;;;;;;11.20;6.50;;;6.30;96.10;;;;;;5092665;28;20167;-78
2023/03/30 03:23:36;;;;;;;8.77;6.57;;;6.20;96.20;;;;;;5092899;28;20213;-77
2023/03/30 03:26:03;;;;;;;8.27;6.90;;;6.20;96.50;;;;;;5074214;28;20533;-78
2023/03/30 03:28:30;;;;;;;7.47;6.30;;;6.10;96.40;;;;;;5092740;28;20233;-76
2023/03/30 03:30:57;;;;;;;8.60;6.77;;;6.00;96.30;;;;;;5093321;28;20660;-77
2023/03/30 03:33:23;;;;;;;9.03;6.90;;;5.90;96.50;;;;;;5092720;28;20228;-76
2023/03/30 03:35:52;;;;;;;7.07;6.37;;;5.90;97.00;;;;;;5092365;28;20176;-77
2023/03/30 03:38:20;;;;;;;11.93;6.90;;;5.90;96.70;;;;;;5073710;28;20577;-77
2023/03/30 03:40:55;;;;;;;8.13;6.60;;;5.80;97.10;;;;;;5091612;28;20167;-78
2023/03/30 03:43:22;;;;;;;7.67;6.13;;;5.80;96.90;;;;;;5092142;28;20599;-78
2023/03/30 03:45:49;;;;;;;9.70;6.87;;;5.70;96.70;;;;;;5095680;28;20217;-78
2023/03/30 03:48:17;;;;;;;10.33;7.23;;;5.70;96.60;;;;;;5092170;28;20261;-79
2023/03/30 03:50:43;;;;;;;8.77;6.23;;;5.70;96.70;;;;;;5092293;28;20216;-78
2023/03/30 03:53:10;;;;;;;9.07;6.70;;;5.60;97.00;;;;;;5092295;28;20664;-77
2023/03/30 03:55:37;;;;;;;9.70;6.77;;;5.50;97.20;;;;;;5078688;28;20588;-78
2023/03/30 03:58:05;;;;;;;8.37;6.33;;;5.50;97.00;;;;;;5096515;28;20183;-76
2023/03/30 04:00:31;;;;;;;6.97;5.60;;;5.50;97.20;;;;;;5095901;28;20188;-78
2023/03/30 04:02:57;;;;;;;9.63;6.53;;;5.60;97.30;;;;;;5095676;28;20235;-78
2023/03/30 04:05:24;;;;;;;8.90;6.90;;;5.60;97.50;;;;;;5096381;28;20183;-77
2023/03/30 04:07:52;;;;;;;7.53;6.50;;;5.60;97.30;;;;;;5078235;28;20184;-79
2023/03/30 04:10:18;;;;;;;10.77;6.60;;;5.60;97.40;;;;;;5096428;28;20267;-78
2023/03/30 04:12:44;;;;;;;7.23;6.37;;;5.50;97.30;;;;;;5096122;28;20174;-76
2023/03/30 04:15:10;;;;;;;9.07;6.53;;;5.60;97.40;;;;;;5096016;28;20537;-77
2023/03/30 04:17:36;;;;;;;7.73;6.13;;;5.60;97.30;;;;;;5096083;28;20209;-79
2023/03/30 04:20:11;;;;;;;10.73;5.97;;;5.70;97.40;;;;;;5096134;28;20271;-76
2023/03/30 04:22:44;;;;;;;7.67;5.80;;;5.70;97.60;;;;;;5095319;28;20222;-76
2023/03/30 04:25:13;;;;;;;9.93;6.57;;;5.80;97.30;;;;;;5095640;28;20190;-78
2023/03/30 04:27:42;;;;;;;7.53;6.53;;;5.80;97.30;;;;;;5095644;28;20201;-77
2023/03/30 04:30:09;;;;;;;10.13;6.20;;;5.80;97.40;;;;;;5096001;28;20200;-77
2023/03/30 04:32:37;;;;;;;8.80;6.37;;;5.70;97.50;;;;;;5095202;28;20180;-78
2023/03/30 04:35:05;;;;;;;9.30;6.70;;;5.70;97.40;;;;;;5095611;28;20174;-76
2023/03/30 04:37:31;;;;;;;9.50;6.37;;;5.70;97.30;;;;;;5095033;28;20192;-76
2023/03/30 04:39:58;;;;;;;9.80;6.53;;;5.60;97.60;;;;;;5095110;28;20226;-77
2023/03/30 04:42:29;;;;;;;8.13;6.60;;;5.70;97.60;;;;;;5076417;28;20871;-78
2023/03/30 04:44:58;;;;;;;8.97;6.30;;;5.70;97.60;;;;;;5095346;28;20230;-77
2023/03/30 04:47:26;;;;;;;6.83;6.13;;;5.80;97.40;;;;;;5095259;28;20223;-76
2023/03/30 04:49:52;;;;;;;7.70;6.07;;;5.80;97.40;;;;;;5095892;28;20200;-77
2023/03/30 04:52:18;;;;;;;10.60;6.30;;;5.80;97.30;;;;;;5095257;28;20213;-77
2023/03/30 04:54:44;;;;;;;8.70;6.50;;;5.90;97.40;;;;;;5094917;28;20259;-76
2023/03/30 04:57:12;;;;;;;8.83;5.93;;;5.90;97.50;;;;;;5094880;28;20250;-77
2023/03/30 04:59:39;;;;;;;8.27;6.17;;;5.90;97.70;;;;;;5094938;28;20184;-78
2023/03/30 05:02:05;;;;;;;7.10;5.93;;;5.90;97.50;;;;;;5094250;28;20269;-77
2023/03/30 05:04:31;;;;;;;12.10;6.37;;;5.90;97.50;;;;;;5094000;28;20300;-76
2023/03/30 05:06:56;;;;;;;7.50;6.10;;;5.90;97.40;;;;;;5094564;28;20172;-79
2023/03/30 05:09:23;;;;;;;7.47;6.10;;;5.90;97.20;;;;;;5094925;28;20179;-75
2023/03/30 05:11:49;;;;;;;7.37;5.87;;;6.00;97.20;;;;;;5094821;28;20548;-77
2023/03/30 05:14:15;;;;;;;10.53;6.40;;;6.10;97.20;;;;;;5094884;28;20184;-77
2023/03/30 05:16:41;;;;;;;9.43;5.83;;;6.10;97.00;;;;;;5094835;28;20170;-77
2023/03/30 05:19:07;;;;;;;10.03;6.53;;;6.10;97.10;;;;;;5094360;28;20231;-78
2023/03/30 05:21:33;;;;;;;10.47;6.77;;;6.20;97.10;;;;;;5094086;28;20173;-77
2023/03/30 05:23:59;;;;;;;11.13;6.47;;;6.20;97.00;;;;;;5094358;28;20739;-78
2023/03/30 05:26:25;;;;;;;9.40;6.57;;;6.40;97.00;;;;;;5094348;28;20212;-78
2023/03/30 05:28:51;;;;;;;9.47;6.60;;;6.50;96.90;;;;;;5094732;28;20223;-77
2023/03/30 05:31:18;;;;;;;11.97;6.53;;;6.50;96.80;;;;;;5094483;28;20172;-78
2023/03/30 05:33:44;;;;;;;7.30;6.60;;;6.50;97.00;;;;;;5094282;28;20176;-78
2023/03/30 05:36:10;;;;;;;11.57;6.73;;;6.60;96.70;;;;;;5094483;28;20494;-77
2023/03/30 05:38:36;;;;;;;7.00;6.17;;;6.60;96.60;;;;;;5095752;28;20538;-79
2023/03/30 05:41:06;;;;;;;7.97;6.43;;;6.60;96.50;;;;;;5096196;28;20193;-76
2023/03/30 05:43:33;;;;;;;7.27;6.50;;;6.60;96.40;;;;;;5093666;28;20208;-78
2023/03/30 05:45:59;;;;;;;10.10;6.80;;;6.60;96.40;;;;;;5085341;28;20277;-77
2023/03/30 05:48:25;;;;;;;8.60;6.50;;;6.70;96.30;;;;;;5073801;28;20177;-79
2023/03/30 05:50:51;;;;;;;8.63;6.63;;;6.70;96.10;;;;;;5074218;28;20182;-77
2023/03/30 05:53:16;;;;;;;7.97;5.90;;;6.90;96.40;;;;;;5056045;28;20195;-78
2023/03/30 05:55:45;;;;;;;8.10;6.07;;;6.90;96.30;;;;;;5073639;28;20172;-78
2023/03/30 05:58:11;;;;;;;8.00;5.97;;;7.00;96.20;;;;;;5073541;28;20276;-78
2023/03/30 06:00:37;;;;;;;7.73;5.70;;;6.90;96.10;;;;;;5073699;28;20174;-79
2023/03/30 06:03:03;;;;;;;8.17;6.30;;;6.90;96.00;;;;;;5072708;28;20200;-78
2023/03/30 06:05:32;;;;;;;8.20;6.33;;;7.00;96.00;;;;;;5073428;28;20234;-79
2023/03/30 06:07:59;;;;;;;6.73;6.00;;;7.00;96.00;;;;;;5073552;28;20199;-78
2023/03/30 06:10:25;;;;;;;7.83;6.37;;;7.10;96.10;;;;;;5073288;28;20184;-77
2023/03/30 06:12:51;;;;;;;8.73;6.83;;;7.10;96.20;;;;;;5073260;28;20178;-76
2023/03/30 06:15:17;;;;;;;12.97;5.40;;;7.20;96.20;;;;;;5072676;28;20553;-78
2023/03/30 06:17:43;;;;;;;7.53;5.77;;;7.20;95.40;;;;;;5071657;28;20167;-79
2023/03/30 06:20:12;;;;;;;7.57;5.70;;;7.20;95.30;;;;;;5072836;28;20663;-77
2023/03/30 06:22:40;;;;;;;8.33;6.53;;;7.20;95.30;;;;;;5072916;28;20187;-76
2023/03/30 06:25:07;;;;;;;11.50;6.20;;;7.20;95.60;;;;;;5072981;28;20258;-78
2023/03/30 06:27:34;;;;;;;8.50;6.83;;;7.20;95.70;;;;;;5072520;28;20181;-78
2023/03/30 06:30:00;;;;;;;13.80;6.77;;;7.10;95.80;;;;;;5054501;28;20183;-78
2023/03/30 06:32:26;;;;;;;7.63;6.60;;;7.10;95.90;;;;;;5072892;28;20632;-78
2023/03/30 06:34:52;;;;;;;11.17;6.63;;;7.10;96.10;;;;;;5072315;28;20178;-78
2023/03/30 06:37:19;;;;;;;10.00;6.57;;;7.20;96.40;;;;;;5072422;28;20172;-77
2023/03/30 06:39:45;;;;;;;9.40;6.60;;;7.20;96.30;;;;;;5072717;28;20235;-77
2023/03/30 06:42:11;;;;;;;8.33;6.20;;;7.30;96.00;;;;;;5072381;28;20196;-76
2023/03/30 06:44:37;;;;;;;8.10;6.30;;;7.30;96.00;;;;;;5072257;28;20205;-77
2023/03/30 06:47:04;;;;;;;9.50;6.97;;;7.30;95.80;;;;;;5071973;28;20740;-79
2023/03/30 06:49:31;;;;;;;8.83;5.87;;;7.40;95.90;;;;;;5072767;28;20256;-78
2023/03/30 06:51:57;;;;;;;14.77;6.90;;;7.40;95.90;;;;;;5073534;28;20173;-79
2023/03/30 06:54:23;;;;;;;7.13;6.10;;;7.50;95.70;;;;;;5092858;28;20183;-79
2023/03/30 06:56:49;;;;;;;9.67;6.90;;;7.50;95.60;;;;;;5092278;28;20177;-77
2023/03/30 06:59:16;;;;;;;10.50;6.70;;;7.40;95.70;;;;;;5092103;28;20177;-76
2023/03/30 07:01:42;;;;;;;9.47;7.13;;;7.60;95.80;;;;;;5074292;28;20563;-78
2023/03/30 07:04:08;;;;;;;8.60;7.03;;;7.60;95.60;;;;;;5092507;28;20216;-77
2023/03/30 07:06:34;;;;;;;12.10;6.47;;;7.70;95.50;;;;;;5091913;28;20228;-78
2023/03/30 07:09:01;;;;;;;8.80;6.13;;;7.80;95.20;;;;;;5092502;28;20177;-77
2023/03/30 07:11:27;;;;;;;11.20;5.67;;;7.80;96.60;;;;;;5093990;28;20530;-77
2023/03/30 07:13:57;;;;;;;11.83;6.53;;;8.00;98.00;;;;;;5092766;28;20176;-77
2023/03/30 07:16:23;;;;;;;9.23;6.83;;;8.10;97.60;;;;;;5074054;28;20181;-79
2023/03/30 07:18:49;;;;;;;7.87;7.03;;;8.30;97.00;;;;;;5091900;28;20188;-76
2023/03/30 07:21:15;;;;;;;10.97;6.93;;;8.40;96.10;;;;;;5092769;28;20261;-80
2023/03/30 07:23:42;;;;;;;9.43;6.33;;;8.60;96.00;;;;;;5092763;28;20307;-77
2023/03/30 07:26:08;;;;;;;9.43;5.93;;;8.70;95.90;;;;;;5092026;28;20166;-78
2023/03/30 07:28:37;;;;;;;8.30;6.20;;;8.70;95.50;;;;;;5091712;28;20912;-77
2023/03/30 07:31:08;;;;;;;9.67;6.97;;;8.70;95.40;;;;;;5092431;28;20557;-77
2023/03/30 07:33:35;;;;;;;15.07;7.73;;;8.70;96.20;;;;;;5092343;28;20182;-78
2023/03/30 07:36:02;;;;;;;12.60;6.90;;;8.70;96.00;;;;;;5091829;28;20576;-76
2023/03/30 07:38:28;;;;;;;10.23;7.30;;;8.70;95.90;;;;;;5091784;28;20167;-77
2023/03/30 07:40:54;;;;;;;8.80;6.80;;;8.80;96.10;;;;;;5091744;28;20179;-77
2023/03/30 07:43:20;;;;;;;8.67;6.67;;;8.90;95.80;;;;;;5091369;28;20675;-77
2023/03/30 07:45:46;;;;;;;11.13;7.53;;;9.00;95.60;;;;;;5091586;28;20170;-79
2023/03/30 07:48:12;;;;;;;14.03;7.40;;;9.20;95.30;;;;;;5092423;28;20260;-78
2023/03/30 07:50:38;;;;;;;10.13;7.03;;;9.40;95.00;;;;;;5092134;28;20573;-78
2023/03/30 07:53:03;;;;;;;8.20;6.57;;;9.50;94.40;;;;;;5091991;28;20180;-77
2023/03/30 07:55:29;;;;;;;11.93;6.93;;;9.70;94.60;;;;;;5091751;28;20178;-78
2023/03/30 07:57:56;;;;;;;10.00;7.50;;;10.00;93.70;;;;;;5091759;28;20285;-78
2023/03/30 08:00:22;;;;;;;8.70;6.53;;;10.10;93.90;;;;;;5091548;28;20178;-79
2023/03/30 08:02:49;;;;;;;8.90;7.13;;;10.30;93.50;;;;;;5091242;28;20670;-79
2023/03/30 08:05:16;;;;;;;11.43;7.80;;;10.40;93.50;;;;;;5091831;28;20197;-76
2023/03/30 08:07:43;;;;;;;9.07;7.00;;;10.40;92.90;;;;;;5091245;28;20236;-77
2023/03/30 08:10:10;;;;;;;10.53;7.57;;;10.30;93.10;;;;;;5091751;28;20245;-78
2023/03/30 08:12:36;;;;;;;11.20;6.93;;;10.20;93.00;;;;;;5091685;28;20187;-78
2023/03/30 08:15:03;;;;;;;9.20;6.73;;;10.30;93.30;;;;;;5091980;28;20181;-77
2023/03/30 08:17:29;;;;;;;13.20;6.97;;;10.30;93.20;;;;;;5073362;28;20646;-77
2023/03/30 08:19:55;;;;;;;11.50;7.17;;;10.40;93.60;;;;;;5091759;28;20183;-77
2023/03/30 08:22:21;;;;;;;9.23;6.73;;;10.50;93.50;;;;;;5091290;28;20182;-77
2023/03/30 08:24:47;;;;;;;8.80;6.30;;;10.60;93.30;;;;;;5091290;28;20212;-79
2023/03/30 08:27:13;;;;;;;8.73;6.83;;;10.80;93.30;;;;;;5091046;28;20204;-77
2023/03/30 08:29:39;;;;;;;11.20;6.40;;;11.10;93.00;;;;;;5091662;28;20189;-78
2023/03/30 08:32:06;;;;;;;10.53;6.33;;;11.40;92.90;;;;;;5091830;28;20236;-77
2023/03/30 08:34:33;;;;;;;8.13;6.00;;;11.80;92.20;;;;;;5092576;28;20270;-79
2023/03/30 08:36:59;;;;;;;7.83;5.67;;;12.00;91.90;;;;;;5090954;28;20167;-78
2023/03/30 08:39:25;;;;;;;6.73;5.73;;;12.10;91.90;;;;;;5092230;28;20285;-77
2023/03/30 08:42:23;;;;;;;16.33;6.27;;;12.30;91.90;;;;;;5094682;28;20224;-78
2023/03/30 08:44:55;;;;;;;7.33;5.60;;;12.50;91.90;;;;;;5094572;28;20266;-78
2023/03/30 08:47:46;;;;;;;6.40;5.60;;;12.60;91.70;;;;;;5094664;28;20255;-77
2023/03/30 08:50:24;;;;;;;5.90;5.40;;;12.70;91.40;;;;;;5095335;28;20170;-76
2023/03/30 08:52:51;;;;;;;14.67;5.70;;;12.70;91.20;;;;;;5095697;28;20175;-76
2023/03/30 08:55:37;;;;;;;9.77;5.17;;;12.80;91.50;;;;;;5095890;28;20243;-78
2023/03/30 08:58:19;;;;;;;10.17;5.20;;;12.90;91.50;;;;;;5095205;28;20495;-78
2023/03/30 09:00:51;;;;;;;11.10;5.60;;;13.10;91.60;;;;;;5097676;28;20174;-77
2023/03/30 09:03:41;;;;;;;10.00;5.80;;;13.40;91.60;;;;;;5098801;28;20191;-77
2023/03/30 09:06:10;;;;;;;11.30;6.00;;;13.50;92.60;;;;;;5099914;28;20283;-76
2023/03/30 09:08:36;;;;;;;8.63;5.30;;;13.80;92.80;;;;;;5096440;28;20163;-78
2023/03/30 09:11:10;;;;;;;15.27;5.93;;;13.80;91.80;;;;;;5095112;28;20231;-76
2023/03/30 09:13:38;;;;;;;10.00;5.53;;;14.10;90.60;;;;;;5094893;28;20154;-77
2023/03/30 09:16:34;;;;;;;7.50;5.80;;;14.10;90.20;;;;;;5094706;28;20185;-78
2023/03/30 09:19:04;;;;;;;11.10;6.83;;;14.30;90.40;;;;;;5094458;28;20197;-76
2023/03/30 09:21:30;;;;;;;10.03;6.13;;;14.40;90.20;;;;;;5075549;28;20585;-76
2023/03/30 09:23:59;;;;;;;6.97;6.17;;;14.30;90.60;;;;;;5094135;28;20198;-76
2023/03/30 09:26:43;;;;;;;10.20;6.70;;;14.50;90.60;;;;;;5076201;28;20193;-77
2023/03/30 09:29:18;;;;;;;10.63;6.77;;;14.70;90.60;;;;;;5093931;28;20172;-78
2023/03/30 09:31:50;;;;;;;7.83;6.20;;;14.90;90.20;;;;;;5094310;28;20183;-77
2023/03/30 09:34:26;;;;;;;7.47;6.17;;;14.90;90.10;;;;;;5075536;28;20163;-76
2023/03/30 09:36:58;;;;;;;7.17;5.83;;;15.10;90.00;;;;;;5093753;28;20247;-79
2023/03/30 09:39:26;;;;;;;10.17;5.57;;;15.20;89.80;;;;;;5076118;28;20324;-77
2023/03/30 09:42:07;;;;;;;9.73;5.90;;;15.30;90.00;;;;;;5085868;28;20527;-77
2023/03/30 09:44:38;;;;;;;9.97;5.73;;;15.30;90.20;;;;;;5055482;28;20592;-78
2023/03/30 09:47:26;;;;;;;6.33;5.40;;;15.40;90.30;;;;;;5076138;28;20585;-77
2023/03/30 09:50:09;;;;;;;8.70;5.83;;;15.60;90.10;;;;;;5092464;28;20173;-79
2023/03/30 09:52:38;;;;;;;7.43;5.23;;;15.60;90.30;;;;;;5091895;28;20661;-77
2023/03/30 09:55:20;;;;;;;4.93;4.40;;;15.70;90.10;;;;;;5092617;28;20194;-77
2023/03/30 09:57:50;;;;;;;5.43;4.90;;;15.80;89.40;;;;;;5092246;28;20195;-77
2023/03/30 10:00:32;;;;;;;9.87;5.93;;;15.70;89.10;;;;;;5094037;28;20170;-78
2023/03/30 10:03:03;;;;;;;8.27;5.07;;;15.60;89.50;;;;;;5103519;28;20205;-78
2023/03/30 10:05:31;;;;;;;5.23;4.73;;;15.40;90.20;;;;;;5114821;28;20231;-78
2023/03/30 10:08:05;;;;;;;5.80;4.57;;;15.40;90.40;;;;;;5116393;28;20720;-77
2023/03/30 10:10:36;;;;;;;7.63;4.67;;;15.40;90.40;;;;;;5113892;28;20162;-77
2023/03/30 10:13:09;;;;;;;5.63;4.53;;;15.50;90.40;;;;;;5113802;28;20242;-78
2023/03/30 10:15:38;;;;;;;4.33;4.00;;;15.60;90.40;;;;;;5113575;28;20173;-77
2023/03/30 10:18:27;;;;;;;5.93;4.37;;;15.60;90.40;;;;;;5124045;28;20273;-77
2023/03/30 10:21:00;;;;;;;4.63;4.23;;;15.70;90.20;;;;;;5104477;28;20198;-77
2023/03/30 10:23:32;;;;;;;6.07;4.80;;;15.80;90.20;;;;;;5115953;28;20246;-78
2023/03/30 10:26:02;;;;;;;5.00;4.50;;;15.90;90.20;;;;;;5113686;28;20241;-78
2023/03/30 10:28:32;;;;;;;5.17;4.63;;;16.00;90.50;;;;;;5113058;28;20177;-77
2023/03/30 10:31:04;;;;;;;5.00;4.53;;;16.00;90.10;;;;;;5112191;28;20178;-78
2023/03/30 10:33:36;;;;;;;5.27;4.77;;;15.90;90.60;;;;;;5113516;28;20178;-79
2023/03/30 10:36:02;;;;;;;4.20;3.90;;;15.80;90.50;;;;;;5112016;28;20174;-78
2023/03/30 10:38:32;;;;;;;4.90;4.40;;;15.70;90.30;;;;;;5113041;28;20223;-80
2023/03/30 10:41:19;;;;;;;4.90;4.40;;;15.60;90.50;;;;;;5113286;28;20162;-79
2023/03/30 10:43:48;;;;;;;4.40;4.00;;;15.70;90.60;;;;;;5112725;28;20542;-79
2023/03/30 10:46:17;;;;;;;6.27;4.20;;;15.80;91.40;;;;;;5107371;28;20223;-77
2023/03/30 10:49:24;;;;;;;5.40;3.90;;;15.80;90.90;;;;;;5073919;28;20654;-78
2023/03/30 10:52:00;;;;;;;4.33;3.70;;;15.70;88.90;;;;;;5092955;28;21045;-77
2023/03/30 10:54:43;;;;;;;3.73;3.13;;;15.70;89.60;;;;;;5092699;28;20158;-77
2023/03/30 10:57:17;;;;;;;3.27;2.97;;;15.60;89.50;;;;;;5092626;28;20175;-78
2023/03/30 11:00:37;;;;;;;3.47;3.17;;;15.60;89.50;;;;;;5092799;28;20218;-78
2023/03/30 11:03:08;;;;;;;3.57;3.13;;;15.70;89.40;;;;;;4990169;28;20216;-78
2023/03/30 11:05:44;;;;;;;4.73;3.23;;;15.60;89.20;;;;;;5074725;28;20188;-78
2023/03/30 11:08:28;;;;;;;3.50;3.20;;;15.70;89.70;;;;;;5092228;28;20201;-76
2023/03/30 11:10:57;;;;;;;4.70;3.77;;;15.60;89.00;;;;;;5092307;28;20159;-76
2023/03/30 11:13:41;;;;;;;5.53;3.50;;;15.70;88.30;;;;;;5092434;28;20207;-76
2023/03/30 11:16:19;;;;;;;3.40;3.20;;;15.50;89.80;;;;;;5092724;28;20635;-77
2023/03/30 11:18:58;;;;;;;5.10;3.37;;;15.30;89.80;;;;;;5092229;28;20245;-79
2023/03/30 11:21:49;;;;;;;3.60;3.30;;;15.30;90.20;;;;;;5074413;28;20179;-78
2023/03/30 11:24:20;;;;;;;3.43;3.13;;;15.10;89.40;;;;;;5096433;28;20194;-78
2023/03/30 11:27:08;;;;;;;3.50;3.30;;;15.00;90.20;;;;;;5093002;28;20161;-76
2023/03/30 11:29:55;;;;;;;6.70;4.33;;;15.00;90.10;;;;;;5092328;28;20228;-77
2023/03/30 11:32:51;;;;;;;5.23;3.97;;;14.90;89.40;;;;;;5092137;28;20163;-78
2023/03/30 11:35:29;;;;;;;4.17;3.77;;;14.80;90.40;;;;;;5060971;28;20180;-77
2023/03/30 11:38:15;;;;;;;5.20;4.27;;;14.70;90.40;;;;;;5094187;28;20155;-78
2023/03/30 11:40:47;;;;;;;4.07;3.57;;;14.70;91.20;;;;;;5093114;28;20166;-79
2023/03/30 11:43:16;;;;;;;6.80;3.93;;;14.70;91.20;;;;;;5091878;28;20230;-78
2023/03/30 11:45:58;;;;;;;5.27;4.03;;;14.70;91.60;;;;;;5073314;28;20546;-77
2023/03/30 11:48:46;;;;;;;7.53;3.97;;;14.70;91.90;;;;;;5073758;28;20201;-78
2023/03/30 11:51:21;;;;;;;4.73;4.23;;;14.60;91.60;;;;;;5094945;28;20175;-77
2023/03/30 11:54:05;;;;;;;5.20;4.00;;;14.50;91.60;;;;;;5092211;28;20242;-78
2023/03/30 11:56:42;;;;;;;4.13;3.57;;;14.50;91.80;;;;;;5092124;28;20160;-78
2023/03/30 11:59:22;;;;;;;6.03;3.83;;;14.50;91.90;;;;;;5091882;28;20239;-77
2023/03/30 12:02:11;;;;;;;3.93;3.60;;;14.60;91.90;;;;;;5092026;28;20194;-78
2023/03/30 12:05:14;;;;;;;4.60;4.00;;;14.80;91.80;;;;;;5042973;28;20218;-78
2023/03/30 12:07:51;;;;;;;5.07;3.80;;;14.90;91.50;;;;;;5093098;28;20261;-77
2023/03/30 12:10:32;;;;;;;3.90;3.50;;;15.00;91.60;;;;;;5091648;28;20743;-78
2023/03/30 12:12:59;;;;;;;3.70;3.40;;;15.20;92.30;;;;;;5073622;28;20174;-77
2023/03/30 12:16:05;;;;;;;7.40;3.90;;;15.40;92.10;;;;;;5081827;28;20262;-79
2023/03/30 12:18:58;;;;;;;6.20;4.17;;;15.50;92.50;;;;;;4998229;28;20190;-79
2023/03/30 12:21:42;;;;;;;7.23;3.90;;;15.70;91.60;;;;;;5096019;28;20175;-77
2023/03/30 12:24:11;;;;;;;4.83;3.77;;;15.60;91.90;;;;;;5095243;28;20300;-78
2023/03/30 12:26:37;;;;;;;4.40;3.80;;;15.50;92.10;;;;;;5095547;28;20187;-77
2023/03/30 12:29:03;;;;;;;4.10;3.70;;;15.60;91.60;;;;;;5095008;28;20647;-77
2023/03/30 12:32:02;;;;;;;4.27;3.87;;;15.60;92.00;;;;;;5095506;28;20177;-78
2023/03/30 12:34:35;;;;;;;6.57;4.03;;;15.70;91.60;;;;;;5095755;28;20669;-77
2023/03/30 12:37:20;;;;;;;4.23;3.83;;;15.70;91.60;;;;;;5095523;28;20155;-79
2023/03/30 12:39:56;;;;;;;6.30;3.70;;;15.70;91.80;;;;;;5095544;28;20159;-77
2023/03/30 12:42:44;;;;;;;4.50;4.10;;;15.70;91.90;;;;;;5095657;28;20542;-77
2023/03/30 12:45:22;;;;;;;4.03;3.67;;;15.50;91.60;;;;;;5096611;28;20257;-77
2023/03/30 12:48:07;;;;;;;7.63;4.70;;;15.40;91.30;;;;;;5096026;28;20243;-77
2023/03/30 12:51:10;;;;;;;7.43;4.10;;;15.30;91.60;;;;;;5094568;28;20166;-77
2023/03/30 12:53:54;;;;;;;7.43;4.07;;;15.20;91.50;;;;;;5095122;28;20176;-77
2023/03/30 12:56:39;;;;;;;4.57;4.10;;;15.10;91.70;;;;;;5095179;28;20170;-78
2023/03/30 12:59:23;;;;;;;4.73;4.33;;;15.00;91.50;;;;;;5078345;28;20530;-76
2023/03/30 13:02:13;;;;;;;5.20;4.37;;;14.90;92.00;;;;;;5094695;28;20162;-77
2023/03/30 13:04:42;;;;;;;5.37;4.13;;;14.80;91.60;;;;;;5094371;28;20195;-77
2023/03/30 13:07:22;;;;;;;5.97;4.67;;;14.80;91.70;;;;;;5094423;28;20638;-79
2023/03/30 13:10:00;;;;;;;4.90;4.30;;;14.80;91.80;;;;;;5094534;28;20156;-77
2023/03/30 13:12:34;;;;;;;4.63;4.23;;;14.80;92.00;;;;;;5096907;28;20171;-78
2023/03/30 13:15:28;;;;;;;5.37;4.37;;;14.90;91.80;;;;;;5094662;28;20180;-78
2023/03/30 13:17:54;;;;;;;5.73;4.80;;;15.00;91.70;;;;;;5076746;28;20537;-78
2023/03/30 13:20:26;;;;;;;4.40;4.10;;;15.10;91.80;;;;;;5076960;28;20177;-78